createdAt,value
2019-02-24T00:00:20.778Z,3.23
2019-02-24T00:02:47.999Z,3.93
2019-02-24T00:05:15.412Z,6.63
2019-02-24T00:07:42.625Z,2.67
2019-02-24T00:10:09.816Z,3.87
2019-02-24T00:12:37.071Z,3.43
2019-02-24T00:15:04.615Z,2.63
2019-02-24T00:17:31.800Z,6.00
2019-02-24T00:19:59.037Z,4.17
2019-02-24T00:22:26.238Z,3.23
2019-02-24T00:24:53.439Z,4.03
2019-02-24T00:27:20.722Z,3.77
2019-02-24T00:29:48.104Z,2.10
2019-02-24T00:32:15.294Z,5.50
2019-02-24T00:34:42.538Z,5.40
2019-02-24T00:37:09.755Z,3.30
2019-02-24T00:39:37.072Z,4.03
2019-02-24T00:42:04.374Z,11.53
2019-02-24T00:44:31.551Z,3.03
2019-02-24T00:46:58.775Z,12.37
2019-02-24T00:49:26.001Z,14.43
2019-02-24T00:51:53.230Z,6.60
2019-02-24T00:54:20.422Z,9.10
2019-02-24T00:56:47.615Z,8.83
2019-02-24T00:59:14.823Z,7.73
2019-02-24T01:01:41.968Z,2.73
2019-02-24T01:04:09.194Z,2.73
2019-02-24T01:06:36.643Z,6.27
2019-02-24T01:09:04.901Z,8.73
2019-02-24T01:11:32.237Z,4.10
2019-02-24T01:13:59.481Z,5.27
2019-02-24T01:16:26.750Z,6.63
2019-02-24T01:18:54.105Z,2.50
2019-02-24T01:21:21.404Z,7.37
2019-02-24T01:23:48.727Z,3.27
2019-02-24T01:26:16.065Z,2.30
2019-02-24T01:28:43.297Z,7.20
2019-02-24T01:31:10.521Z,4.30
2019-02-24T01:33:38.140Z,4.60
2019-02-24T01:36:05.337Z,6.90
2019-02-24T01:38:32.547Z,2.80
2019-02-24T01:40:59.781Z,5.87
2019-02-24T01:43:26.960Z,3.00
2019-02-24T01:45:54.207Z,3.20
2019-02-24T01:48:21.391Z,3.23
2019-02-24T01:50:48.634Z,5.93
2019-02-24T01:53:15.863Z,4.00
2019-02-24T01:55:43.098Z,2.60
2019-02-24T01:58:10.295Z,2.97
2019-02-24T02:00:37.551Z,7.23
2019-02-24T02:03:04.762Z,2.27
2019-02-24T02:05:32.060Z,2.43
2019-02-24T02:07:59.238Z,1.50
2019-02-24T02:10:26.431Z,5.80
2019-02-24T02:12:53.700Z,2.40
2019-02-24T02:15:21.067Z,3.17
2019-02-24T02:17:48.260Z,3.10
2019-02-24T02:20:15.503Z,1.97
2019-02-24T02:22:42.710Z,2.93
2019-02-24T02:25:10.056Z,4.40
2019-02-24T02:27:37.241Z,3.30
2019-02-24T02:30:05.030Z,2.17
2019-02-24T02:32:32.333Z,2.47
2019-02-24T02:34:59.515Z,3.63
2019-02-24T02:37:26.695Z,2.80
2019-02-24T02:39:53.896Z,4.13
2019-02-24T02:42:21.079Z,1.67
2019-02-24T02:44:48.350Z,4.57
2019-02-24T02:47:15.532Z,3.50
2019-02-24T02:49:42.743Z,3.00
2019-02-24T02:52:10.051Z,3.37
2019-02-24T02:54:37.322Z,1.80
2019-02-24T02:57:04.702Z,2.33
2019-02-24T02:59:31.947Z,1.97
2019-02-24T03:01:59.150Z,2.13
2019-02-24T03:04:26.375Z,1.57
2019-02-24T03:07:22.485Z,10.03
2019-02-24T03:09:49.659Z,3.87
2019-02-24T03:12:16.832Z,1.90
2019-02-24T03:14:44.063Z,2.10
2019-02-24T03:17:11.452Z,2.63
2019-02-24T03:19:38.627Z,4.80
2019-02-24T03:22:05.837Z,10.10
2019-02-24T03:24:33.187Z,2.17
2019-02-24T03:27:00.412Z,3.20
2019-02-24T03:29:27.614Z,2.90
2019-02-24T03:31:54.929Z,1.67
2019-02-24T03:34:22.122Z,2.00
2019-02-24T03:36:49.316Z,2.00
2019-02-24T03:39:16.561Z,5.13
2019-02-24T03:41:43.812Z,2.40
2019-02-24T03:44:11.047Z,1.97
2019-02-24T03:46:38.231Z,2.60
2019-02-24T03:49:05.440Z,2.50
2019-02-24T03:51:32.639Z,4.60
2019-02-24T03:53:59.822Z,2.20
2019-02-24T03:56:27.063Z,2.43
2019-02-24T03:58:54.247Z,2.53
2019-02-24T04:01:21.475Z,3.73
2019-02-24T04:03:48.699Z,2.07
2019-02-24T04:06:15.918Z,2.13
2019-02-24T04:08:43.091Z,2.00
2019-02-24T04:11:10.278Z,2.10
2019-02-24T04:13:37.489Z,2.33
2019-02-24T04:16:04.783Z,5.73
2019-02-24T04:18:31.995Z,2.67
2019-02-24T04:20:59.266Z,1.87
2019-02-24T04:23:26.519Z,1.57
2019-02-24T04:25:53.807Z,4.63
2019-02-24T04:28:21.025Z,6.03
2019-02-24T04:30:48.218Z,1.70
2019-02-24T04:33:15.477Z,2.90
2019-02-24T04:35:42.750Z,1.67
2019-02-24T04:38:09.924Z,2.20
2019-02-24T04:40:37.114Z,2.87
2019-02-24T04:43:04.478Z,2.10
2019-02-24T04:45:31.649Z,2.00
2019-02-24T04:47:58.886Z,3.87
2019-02-24T04:50:26.134Z,4.27
2019-02-24T04:52:53.354Z,1.70
2019-02-24T04:55:20.609Z,2.07
2019-02-24T04:57:47.815Z,2.10
2019-02-24T05:00:15.060Z,2.30
2019-02-24T05:02:42.222Z,1.87
2019-02-24T05:05:09.450Z,1.60
2019-02-24T05:07:36.764Z,2.43
2019-02-24T05:10:04.479Z,1.80
2019-02-24T05:12:31.755Z,6.20
2019-02-24T05:14:59.143Z,2.03
2019-02-24T05:17:26.374Z,2.90
2019-02-24T05:19:53.537Z,2.43
2019-02-24T05:22:20.762Z,2.63
2019-02-24T05:24:47.942Z,2.47
2019-02-24T05:27:15.167Z,4.93
2019-02-24T05:29:45.822Z,2.13
2019-02-24T05:32:11.604Z,2.30
2019-02-24T05:34:38.829Z,1.63
2019-02-24T05:37:06.063Z,1.90
2019-02-24T05:39:33.247Z,3.10
2019-02-24T05:42:00.438Z,8.30
2019-02-24T05:44:27.702Z,3.60
2019-02-24T05:46:54.865Z,1.53
2019-02-24T05:49:23.685Z,4.27
2019-02-24T05:51:51.040Z,2.50
2019-02-24T05:54:18.384Z,2.87
2019-02-24T05:56:45.621Z,1.73
2019-02-24T05:59:12.975Z,1.73
2019-02-24T06:01:40.211Z,2.90
2019-02-24T06:04:07.498Z,12.10
2019-02-24T06:06:34.773Z,4.83
2019-02-24T06:09:05.048Z,8.30
2019-02-24T06:11:35.273Z,3.53
2019-02-24T06:14:04.791Z,8.83
2019-02-24T06:16:34.210Z,6.87
2019-02-24T06:19:03.775Z,5.67
2019-02-24T06:21:31.183Z,5.17
2019-02-24T06:23:58.413Z,3.70
2019-02-24T06:26:25.641Z,6.23
2019-02-24T06:28:52.825Z,2.83
2019-02-24T06:31:20.035Z,3.50
2019-02-24T06:33:47.256Z,6.30
2019-02-24T06:36:14.474Z,9.77
2019-02-24T06:38:41.649Z,2.97
2019-02-24T06:41:08.889Z,3.00
2019-02-24T06:43:36.099Z,2.70
2019-02-24T06:46:03.414Z,6.20
2019-02-24T06:48:30.592Z,1.83
2019-02-24T06:51:00.570Z,2.17
2019-02-24T06:53:27.799Z,5.83
2019-02-24T06:55:55.027Z,3.37
2019-02-24T06:58:22.408Z,3.63
2019-02-24T07:00:50.856Z,9.43
2019-02-24T07:03:18.725Z,8.53
2019-02-24T07:05:46.029Z,3.80
2019-02-24T07:08:13.447Z,3.23
2019-02-24T07:10:40.711Z,2.37
2019-02-24T07:13:07.916Z,3.43
2019-02-24T07:15:35.154Z,2.70
2019-02-24T07:18:02.347Z,2.70
2019-02-24T07:20:29.659Z,4.93
2019-02-24T07:22:57.038Z,2.40
2019-02-24T07:25:24.241Z,7.00
2019-02-24T07:27:51.438Z,13.67
2019-02-24T07:30:23.495Z,19.43
2019-02-24T07:32:47.775Z,33.40
2019-02-24T07:35:15.005Z,9.77
2019-02-24T07:37:42.230Z,8.77
2019-02-24T07:40:09.489Z,14.37
2019-02-24T07:42:36.669Z,18.43
2019-02-24T07:45:03.911Z,8.67
2019-02-24T07:47:31.431Z,12.47
2019-02-24T07:49:58.618Z,18.90
2019-02-24T07:52:25.844Z,12.23
2019-02-24T07:54:53.026Z,13.63
2019-02-24T07:57:20.236Z,13.03
2019-02-24T07:59:47.432Z,30.23
2019-02-24T08:02:14.626Z,11.13
2019-02-24T08:04:41.822Z,9.20
2019-02-24T08:07:09.018Z,10.03
2019-02-24T08:09:36.234Z,13.40
2019-02-24T08:12:04.375Z,11.30
2019-02-24T08:14:31.692Z,19.27
2019-02-24T08:16:59.028Z,14.20
2019-02-24T08:19:26.393Z,19.90
2019-02-24T08:21:54.073Z,12.77
2019-02-24T08:24:21.592Z,15.60
2019-02-24T08:26:48.796Z,12.53
2019-02-24T08:29:16.059Z,12.53
2019-02-24T08:31:43.819Z,16.00
2019-02-24T08:34:11.050Z,18.33
2019-02-24T08:36:38.318Z,21.83
2019-02-24T08:39:05.690Z,7.70
2019-02-24T08:41:32.999Z,12.87
2019-02-24T08:44:00.205Z,20.07
2019-02-24T08:46:27.556Z,19.37
2019-02-24T08:48:54.729Z,12.50
2019-02-24T08:51:23.421Z,10.03
2019-02-24T08:53:50.730Z,17.67
2019-02-24T08:56:17.940Z,11.77
2019-02-24T08:58:45.189Z,7.63
2019-02-24T09:01:12.460Z,11.20
2019-02-24T09:03:39.685Z,14.00
2019-02-24T09:06:06.918Z,14.77
2019-02-24T09:08:34.179Z,25.43
2019-02-24T09:11:02.303Z,10.70
2019-02-24T09:13:34.487Z,15.10
2019-02-24T09:16:01.821Z,22.53
2019-02-24T09:18:29.154Z,19.20
2019-02-24T09:20:58.231Z,16.50
2019-02-24T09:23:27.170Z,20.63
2019-02-24T09:25:54.477Z,19.47
2019-02-24T09:28:21.756Z,30.10
2019-02-24T09:30:48.999Z,13.27
2019-02-24T09:33:16.267Z,10.33
2019-02-24T09:35:43.447Z,15.30
2019-02-24T09:38:10.737Z,25.63
2019-02-24T09:40:37.902Z,28.07
2019-02-24T09:43:05.091Z,30.87
2019-02-24T09:45:32.303Z,30.03
2019-02-24T09:47:59.518Z,18.87
2019-02-24T09:50:26.759Z,15.43
2019-02-24T09:52:54.022Z,25.13
2019-02-24T09:55:21.235Z,14.20
2019-02-24T09:57:48.552Z,11.00
2019-02-24T10:00:15.950Z,17.23
2019-02-24T10:02:43.154Z,8.33
2019-02-24T10:05:10.339Z,15.60
2019-02-24T10:07:37.622Z,15.63
2019-02-24T10:10:04.842Z,28.67
2019-02-24T10:12:32.001Z,14.90
2019-02-24T10:14:59.631Z,13.00
2019-02-24T10:17:26.843Z,9.00
2019-02-24T10:19:54.084Z,12.03
2019-02-24T10:22:21.333Z,15.70
2019-02-24T10:24:48.551Z,10.40
2019-02-24T10:27:15.765Z,6.93
2019-02-24T10:29:43.020Z,18.63
2019-02-24T10:32:10.239Z,9.77
2019-02-24T10:34:37.439Z,13.13
2019-02-24T10:37:04.689Z,9.10
2019-02-24T10:39:31.930Z,8.50
2019-02-24T10:41:59.101Z,7.00
2019-02-24T10:44:26.411Z,14.70
2019-02-24T10:46:53.585Z,10.87
2019-02-24T10:49:20.753Z,7.83
2019-02-24T10:51:47.952Z,15.40
2019-02-24T10:54:15.158Z,12.50
2019-02-24T10:56:42.390Z,13.63
2019-02-24T10:59:10.028Z,8.13
2019-02-24T11:01:37.371Z,10.17
2019-02-24T11:04:04.719Z,16.60
2019-02-24T11:06:31.936Z,14.23
2019-02-24T11:08:59.088Z,12.33
2019-02-24T11:11:26.317Z,13.03
2019-02-24T11:13:53.698Z,12.00
2019-02-24T11:16:20.945Z,16.27
2019-02-24T11:18:48.249Z,16.10
2019-02-24T11:21:15.547Z,15.67
2019-02-24T11:23:42.966Z,13.20
2019-02-24T11:26:10.169Z,4.97
2019-02-24T11:28:37.382Z,10.90
2019-02-24T11:31:04.592Z,17.20
2019-02-24T11:33:31.835Z,7.87
2019-02-24T11:35:59.109Z,12.20
2019-02-24T11:38:26.255Z,8.13
2019-02-24T11:40:53.629Z,8.60
2019-02-24T11:43:20.898Z,11.53
2019-02-24T11:45:48.137Z,13.73
2019-02-24T11:48:15.280Z,13.87
2019-02-24T11:50:42.457Z,19.53
2019-02-24T11:53:09.761Z,12.93
2019-02-24T11:55:38.645Z,10.40
2019-02-24T11:58:06.142Z,11.60
2019-02-24T12:00:33.535Z,12.50
2019-02-24T12:03:00.850Z,11.10
2019-02-24T12:05:28.230Z,9.90
2019-02-24T12:07:55.527Z,15.73
2019-02-24T12:10:22.779Z,18.60
2019-02-24T12:12:50.133Z,12.40
2019-02-24T12:15:17.314Z,8.00
2019-02-24T12:17:44.696Z,14.27
2019-02-24T12:20:11.970Z,6.53
2019-02-24T12:22:39.171Z,12.90
2019-02-24T12:25:06.823Z,18.67
2019-02-24T12:27:33.962Z,10.10
2019-02-24T12:30:01.165Z,6.27
2019-02-24T12:32:28.338Z,20.90
2019-02-24T12:34:55.598Z,10.07
2019-02-24T12:37:22.800Z,9.13
2019-02-24T12:39:50.022Z,8.37
2019-02-24T12:42:17.262Z,18.80
2019-02-24T12:44:44.454Z,6.77
2019-02-24T12:47:11.659Z,11.97
2019-02-24T12:49:38.943Z,10.60
2019-02-24T12:52:06.150Z,15.03
2019-02-24T12:54:33.326Z,6.53
2019-02-24T12:57:00.554Z,11.40
2019-02-24T12:59:27.749Z,9.73
2019-02-24T13:01:54.963Z,6.90
2019-02-24T13:04:22.151Z,15.93
2019-02-24T13:06:49.394Z,12.60
2019-02-24T13:09:16.581Z,19.90
2019-02-24T13:11:43.743Z,6.20
2019-02-24T13:14:11.051Z,9.93
2019-02-24T13:16:38.353Z,6.07
2019-02-24T13:19:05.566Z,8.40
2019-02-24T13:21:33.455Z,11.90
2019-02-24T13:24:00.897Z,13.67
2019-02-24T13:26:28.189Z,9.87
2019-02-24T13:28:55.475Z,9.40
2019-02-24T13:31:22.685Z,12.73
2019-02-24T13:33:50.136Z,10.33
2019-02-24T13:36:17.377Z,6.53
2019-02-24T13:38:44.605Z,4.30
2019-02-24T13:41:11.872Z,10.73
2019-02-24T13:43:39.194Z,8.73
2019-02-24T13:46:06.432Z,9.57
2019-02-24T13:48:33.630Z,11.23
2019-02-24T13:51:01.602Z,10.30
2019-02-24T13:53:31.123Z,5.97
2019-02-24T13:55:58.483Z,9.03
2019-02-24T13:58:25.735Z,6.70
2019-02-24T14:00:54.696Z,10.43
2019-02-24T14:03:22.090Z,10.17
2019-02-24T14:05:49.475Z,3.43
2019-02-24T14:08:16.659Z,12.03
2019-02-24T14:10:43.840Z,5.07
2019-02-24T14:13:11.024Z,6.77
2019-02-24T14:15:38.246Z,5.93
2019-02-24T14:18:05.638Z,8.97
2019-02-24T14:20:32.855Z,5.83
2019-02-24T14:23:00.139Z,3.20
2019-02-24T14:25:27.497Z,13.73
2019-02-24T14:27:54.815Z,4.60
2019-02-24T14:30:22.896Z,7.60
2019-02-24T14:32:50.218Z,15.77
2019-02-24T14:35:17.511Z,6.57
2019-02-24T14:37:46.841Z,7.60
2019-02-24T14:40:15.565Z,6.00
2019-02-24T14:42:45.085Z,10.87
2019-02-24T14:45:14.091Z,9.60
2019-02-24T14:47:41.365Z,11.87
2019-02-24T14:50:08.822Z,7.83
2019-02-24T14:52:36.276Z,6.90
2019-02-24T14:55:03.758Z,7.10
2019-02-24T14:57:30.978Z,5.53
2019-02-24T14:59:58.147Z,10.27
2019-02-24T15:02:25.425Z,5.00
2019-02-24T15:04:52.655Z,9.90
2019-02-24T15:07:19.959Z,4.80
2019-02-24T15:09:47.144Z,8.30
2019-02-24T15:12:14.398Z,5.70
2019-02-24T15:14:41.646Z,5.10
2019-02-24T15:17:08.860Z,6.83
2019-02-24T15:19:35.620Z,9.47
2019-02-24T15:22:02.943Z,6.60
2019-02-24T15:24:30.153Z,7.13
2019-02-24T15:26:57.504Z,10.47
2019-02-24T15:29:24.769Z,19.43
2019-02-24T15:31:52.226Z,5.77
2019-02-24T15:34:19.619Z,7.47
2019-02-24T15:36:46.859Z,5.93
2019-02-24T15:39:14.031Z,11.20
2019-02-24T15:41:41.307Z,9.33
2019-02-24T15:44:10.136Z,4.80
2019-02-24T15:46:38.355Z,6.17
2019-02-24T15:49:05.575Z,5.77
2019-02-24T15:51:32.887Z,4.20
2019-02-24T15:54:00.076Z,7.70
2019-02-24T15:56:27.283Z,8.10
2019-02-24T15:58:54.525Z,8.93
2019-02-24T16:01:21.803Z,7.00
2019-02-24T16:03:49.060Z,4.93
2019-02-24T16:06:18.032Z,6.00
2019-02-24T16:08:45.540Z,4.93
2019-02-24T16:11:12.890Z,6.87
2019-02-24T16:13:40.082Z,5.30
2019-02-24T16:16:07.306Z,5.77
2019-02-24T16:18:34.498Z,8.23
2019-02-24T16:21:01.699Z,5.40
2019-02-24T16:23:29.015Z,11.03
2019-02-24T16:25:56.214Z,3.60
2019-02-24T16:28:23.395Z,13.93
2019-02-24T16:30:50.747Z,5.93
2019-02-24T16:33:17.896Z,5.67
2019-02-24T16:35:45.163Z,6.20
2019-02-24T16:38:12.331Z,3.47
2019-02-24T16:40:39.729Z,3.70
2019-02-24T16:43:07.107Z,7.00
2019-02-24T16:45:34.294Z,3.60
2019-02-24T16:48:01.499Z,5.37
2019-02-24T16:50:28.742Z,5.00
2019-02-24T16:52:56.063Z,10.93
2019-02-24T16:55:23.283Z,4.90
2019-02-24T16:57:50.469Z,7.20
2019-02-24T17:00:18.358Z,5.10
2019-02-24T17:02:45.920Z,4.47
2019-02-24T17:05:13.164Z,8.20
2019-02-24T17:07:40.395Z,5.40
2019-02-24T17:10:08.752Z,8.10
2019-02-24T17:12:35.965Z,9.93
2019-02-24T17:15:03.759Z,6.20
2019-02-24T17:17:31.076Z,13.47
2019-02-24T17:19:58.368Z,9.30
2019-02-24T17:22:25.781Z,9.23
2019-02-24T17:25:03.169Z,7.10
2019-02-24T17:27:36.794Z,7.07
2019-02-24T17:30:05.530Z,4.00
2019-02-24T17:32:32.950Z,6.23
2019-02-24T17:35:00.320Z,4.70
2019-02-24T17:37:27.557Z,5.33
2019-02-24T17:39:54.987Z,14.33
2019-02-24T17:42:22.373Z,13.17
2019-02-24T17:44:49.722Z,11.20
2019-02-24T17:47:17.042Z,10.70
2019-02-24T17:49:44.360Z,10.27
2019-02-24T17:52:11.530Z,12.47
2019-02-24T17:54:38.755Z,17.93
2019-02-24T17:57:06.130Z,10.57
2019-02-24T17:59:40.239Z,15.53
2019-02-24T18:02:03.169Z,12.90
2019-02-24T18:04:30.336Z,8.30
2019-02-24T18:06:57.566Z,8.67
2019-02-24T18:09:24.751Z,9.37
2019-02-24T18:11:51.946Z,15.03
2019-02-24T18:14:19.158Z,7.40
2019-02-24T18:16:46.360Z,12.30
2019-02-24T18:19:13.548Z,4.20
2019-02-24T18:21:40.752Z,6.20
2019-02-24T18:24:07.975Z,10.60
2019-02-24T18:26:40.058Z,9.40
2019-02-24T18:29:07.880Z,8.93
2019-02-24T18:31:35.279Z,5.80
2019-02-24T18:34:02.543Z,6.83
2019-02-24T18:36:29.708Z,5.27
2019-02-24T18:38:59.324Z,16.57
2019-02-24T18:41:26.946Z,5.30
2019-02-24T18:43:54.437Z,6.43
2019-02-24T18:46:21.979Z,8.33
2019-02-24T18:48:49.254Z,6.70
2019-02-24T18:51:16.579Z,4.37
2019-02-24T18:53:43.774Z,11.10
2019-02-24T18:56:10.971Z,21.70
2019-02-24T18:58:38.172Z,24.43
2019-02-24T19:01:05.415Z,6.90
2019-02-24T19:03:32.723Z,11.70
2019-02-24T19:05:59.903Z,13.20
2019-02-24T19:08:27.066Z,9.10
2019-02-24T19:10:54.294Z,6.23
2019-02-24T19:13:21.509Z,13.30
2019-02-24T19:15:48.695Z,6.87
2019-02-24T19:18:16.009Z,7.30
2019-02-24T19:20:43.307Z,21.10
2019-02-24T19:23:10.493Z,8.30
2019-02-24T19:25:37.672Z,27.87
2019-02-24T19:28:04.894Z,4.97
2019-02-24T19:30:32.049Z,4.73
2019-02-24T19:32:59.290Z,9.43
2019-02-24T19:35:26.509Z,10.97
2019-02-24T19:37:53.687Z,15.53
2019-02-24T19:40:20.885Z,8.40
2019-02-24T19:42:48.057Z,11.57
2019-02-24T19:45:15.978Z,5.90
2019-02-24T19:47:43.144Z,7.20
2019-02-24T19:50:11.820Z,11.70
2019-02-24T19:52:39.018Z,8.83
2019-02-24T19:55:07.050Z,7.90
2019-02-24T19:57:34.224Z,6.53
2019-02-24T20:00:01.402Z,5.13
2019-02-24T20:02:28.604Z,5.30
2019-02-24T20:04:55.747Z,9.20
2019-02-24T20:07:22.922Z,9.23
2019-02-24T20:09:50.118Z,6.50
2019-02-24T20:12:17.252Z,5.07
2019-02-24T20:14:44.504Z,5.13
2019-02-24T20:17:11.702Z,6.80
2019-02-24T20:19:38.918Z,5.37
2019-02-24T20:22:06.081Z,7.70
2019-02-24T20:24:33.336Z,6.90
2019-02-24T20:27:00.470Z,4.60
2019-02-24T20:29:27.665Z,10.13
2019-02-24T20:31:54.834Z,9.33
2019-02-24T20:34:25.450Z,7.93
2019-02-24T20:36:51.253Z,4.50
2019-02-24T20:39:18.429Z,4.50
2019-02-24T20:41:45.611Z,5.90
2019-02-24T20:44:12.846Z,4.93
2019-02-24T20:46:39.997Z,7.93
2019-02-24T20:49:07.209Z,4.03
2019-02-24T20:51:34.423Z,4.77
2019-02-24T20:54:01.555Z,7.80
2019-02-24T20:56:28.751Z,4.37
2019-02-24T20:58:55.978Z,9.60
2019-02-24T21:01:23.161Z,6.00
2019-02-24T21:03:50.369Z,5.77
2019-02-24T21:06:17.573Z,4.73
2019-02-24T21:08:44.888Z,5.07
2019-02-24T21:11:12.099Z,5.30
2019-02-24T21:13:39.242Z,6.17
2019-02-24T21:16:06.437Z,6.20
2019-02-24T21:18:33.593Z,6.10
2019-02-24T21:21:00.842Z,5.30
2019-02-24T21:23:28.037Z,3.00
2019-02-24T21:25:55.270Z,3.37
2019-02-24T21:28:22.452Z,4.33
2019-02-24T21:30:49.664Z,7.70
2019-02-24T21:33:16.989Z,7.13
2019-02-24T21:35:44.181Z,5.57
2019-02-24T21:38:11.378Z,4.83
2019-02-24T21:40:38.542Z,3.23
2019-02-24T21:43:05.796Z,7.80
2019-02-24T21:45:32.952Z,2.93
2019-02-24T21:48:00.166Z,4.70
2019-02-24T21:50:27.356Z,4.27
2019-02-24T21:52:54.586Z,4.03
2019-02-24T21:55:21.797Z,5.13
2019-02-24T21:57:49.127Z,3.87
2019-02-24T22:00:17.996Z,3.90
2019-02-24T22:02:45.226Z,6.70
2019-02-24T22:05:12.492Z,4.73
2019-02-24T22:07:39.665Z,4.67
2019-02-24T22:10:07.862Z,4.10
2019-02-24T22:12:35.076Z,5.10
2019-02-24T22:15:02.258Z,6.50
2019-02-24T22:17:29.450Z,4.40
2019-02-24T22:19:56.641Z,3.50
2019-02-24T22:22:23.866Z,5.37
2019-02-24T22:24:51.058Z,4.83
2019-02-24T22:27:18.249Z,6.07
2019-02-24T22:29:45.478Z,3.30
2019-02-24T22:32:12.728Z,7.60
2019-02-24T22:34:39.911Z,3.10
2019-02-24T22:37:07.077Z,3.57
2019-02-24T22:39:34.294Z,4.50
2019-02-24T22:42:01.456Z,4.80
2019-02-24T22:44:28.732Z,3.70
2019-02-24T22:46:55.983Z,4.83
2019-02-24T22:49:23.158Z,5.00
2019-02-24T22:51:50.331Z,3.30
2019-02-24T22:54:17.534Z,5.73
2019-02-24T22:56:44.744Z,3.67
2019-02-24T22:59:11.919Z,6.60
2019-02-24T23:01:39.671Z,3.53
2019-02-24T23:04:08.993Z,3.40
2019-02-24T23:06:36.231Z,2.80
2019-02-24T23:09:04.977Z,2.80
2019-02-24T23:11:32.158Z,5.33
2019-02-24T23:13:59.351Z,3.27
2019-02-24T23:16:26.557Z,3.17
2019-02-24T23:18:53.770Z,3.80
2019-02-24T23:21:21.005Z,2.20
2019-02-24T23:23:48.285Z,4.97
2019-02-24T23:26:15.506Z,5.17
2019-02-24T23:28:42.699Z,4.87
2019-02-24T23:31:09.940Z,3.90
2019-02-24T23:33:37.126Z,3.70
2019-02-24T23:36:04.511Z,3.70
2019-02-24T23:38:31.733Z,2.67
2019-02-24T23:40:58.950Z,5.30
2019-02-24T23:43:26.168Z,3.33
2019-02-24T23:45:53.338Z,3.53
2019-02-24T23:48:20.565Z,2.67
2019-02-24T23:50:47.767Z,5.67
2019-02-24T23:53:14.994Z,3.53
2019-02-24T23:55:42.271Z,4.80
2019-02-24T23:58:09.437Z,2.77
